sensor_id;sensor_type;location;lat;lon;timestamp;temperature;humidity
21712;DHT22;11017;53.552;9.910;2023-03-05T00:01:52;4.80;99.90
21712;DHT22;11017;53.552;9.910;2023-03-05T00:04:19;4.70;99.90
21712;DHT22;11017;53.552;9.910;2023-03-05T00:06:48;4.80;99.90
21712;DHT22;11017;53.552;9.910;2023-03-05T00:09:15;4.70;99.90
21712;DHT22;11017;53.552;9.910;2023-03-05T00:11:42;4.80;99.90
21712;DHT22;11017;53.552;9.910;2023-03-05T00:14:10;4.90;99.90
21712;DHT22;11017;53.552;9.910;2023-03-05T00:16:37;4.80;99.90
21712;DHT22;11017;53.552;9.910;2023-03-05T00:19:05;4.90;99.90
21712;DHT22;11017;53.552;9.910;2023-03-05T00:21:34;4.90;99.90
21712;DHT22;11017;53.552;9.910;2023-03-05T00:24:02;5.00;99.90
21712;DHT22;11017;53.552;9.910;2023-03-05T00:26:29;5.10;99.90
21712;DHT22;11017;53.552;9.910;2023-03-05T00:28:59;4.90;99.90
21712;DHT22;11017;53.552;9.910;2023-03-05T00:31:28;4.80;99.90
21712;DHT22;11017;53.552;9.910;2023-03-05T00:33:57;4.70;99.90
21712;DHT22;11017;53.552;9.910;2023-03-05T00:36:24;4.70;99.90
21712;DHT22;11017;53.552;9.910;2023-03-05T00:38:52;4.80;99.90
21712;DHT22;11017;53.552;9.910;2023-03-05T00:41:19;4.80;99.90
21712;DHT22;11017;53.552;9.910;2023-03-05T00:43:46;4.80;99.90
21712;DHT22;11017;53.552;9.910;2023-03-05T00:46:14;4.80;99.90
21712;DHT22;11017;53.552;9.910;2023-03-05T00:48:42;4.80;99.90
21712;DHT22;11017;53.552;9.910;2023-03-05T00:51:09;4.70;99.90
21712;DHT22;11017;53.552;9.910;2023-03-05T00:53:36;4.90;99.90
21712;DHT22;11017;53.552;9.910;2023-03-05T00:56:04;4.80;99.90
21712;DHT22;11017;53.552;9.910;2023-03-05T00:58:31;4.80;99.90
21712;DHT22;11017;53.552;9.910;2023-03-05T01:00:58;4.80;99.90
21712;DHT22;11017;53.552;9.910;2023-03-05T01:05:55;4.60;99.90
21712;DHT22;11017;53.552;9.910;2023-03-05T01:08:23;4.50;99.90
21712;DHT22;11017;53.552;9.910;2023-03-05T01:10:51;4.60;99.90
21712;DHT22;11017;53.552;9.910;2023-03-05T01:13:19;4.60;99.90
21712;DHT22;11017;53.552;9.910;2023-03-05T01:15:46;4.70;99.90
21712;DHT22;11017;53.552;9.910;2023-03-05T01:18:16;4.60;99.90
21712;DHT22;11017;53.552;9.910;2023-03-05T01:20:43;4.60;99.90
21712;DHT22;11017;53.552;9.910;2023-03-05T01:23:11;4.60;99.90
21712;DHT22;11017;53.552;9.910;2023-03-05T01:25:38;4.70;99.90
21712;DHT22;11017;53.552;9.910;2023-03-05T01:28:06;4.80;99.90
21712;DHT22;11017;53.552;9.910;2023-03-05T01:30:33;4.80;99.90
21712;DHT22;11017;53.552;9.910;2023-03-05T01:33:00;4.70;99.90
21712;DHT22;11017;53.552;9.910;2023-03-05T01:35:28;4.50;99.90
21712;DHT22;11017;53.552;9.910;2023-03-05T01:37:55;4.50;99.90
21712;DHT22;11017;53.552;9.910;2023-03-05T01:40:26;4.40;99.90
21712;DHT22;11017;53.552;9.910;2023-03-05T01:42:59;4.20;99.90
21712;DHT22;11017;53.552;9.910;2023-03-05T01:45:28;4.20;99.90
21712;DHT22;11017;53.552;9.910;2023-03-05T01:47:55;4.10;99.90
21712;DHT22;11017;53.552;9.910;2023-03-05T01:50:24;4.10;99.90
21712;DHT22;11017;53.552;9.910;2023-03-05T01:52:55;4.00;99.90
21712;DHT22;11017;53.552;9.910;2023-03-05T01:55:27;4.10;99.90
21712;DHT22;11017;53.552;9.910;2023-03-05T01:57:56;4.30;99.90
21712;DHT22;11017;53.552;9.910;2023-03-05T02:00:28;4.40;99.90
21712;DHT22;11017;53.552;9.910;2023-03-05T02:02:56;4.40;99.90
21712;DHT22;11017;53.552;9.910;2023-03-05T02:05:28;4.20;99.90
21712;DHT22;11017;53.552;9.910;2023-03-05T02:07:56;4.10;99.90
21712;DHT22;11017;53.552;9.910;2023-03-05T02:10:27;4.10;99.90
21712;DHT22;11017;53.552;9.910;2023-03-05T02:12:56;4.00;99.90
21712;DHT22;11017;53.552;9.910;2023-03-05T02:15:24;4.10;99.90
21712;DHT22;11017;53.552;9.910;2023-03-05T02:17:51;4.00;99.90
21712;DHT22;11017;53.552;9.910;2023-03-05T02:20:21;3.90;99.90
21712;DHT22;11017;53.552;9.910;2023-03-05T02:22:49;3.90;99.90
21712;DHT22;11017;53.552;9.910;2023-03-05T02:25:19;3.90;99.90
21712;DHT22;11017;53.552;9.910;2023-03-05T02:27:51;3.70;99.90
21712;DHT22;11017;53.552;9.910;2023-03-05T02:30:20;3.60;99.90
21712;DHT22;11017;53.552;9.910;2023-03-05T02:32:47;3.50;99.90
21712;DHT22;11017;53.552;9.910;2023-03-05T02:35:14;3.50;99.90
21712;DHT22;11017;53.552;9.910;2023-03-05T02:37:41;3.50;99.90
21712;DHT22;11017;53.552;9.910;2023-03-05T02:40:11;3.50;99.90
21712;DHT22;11017;53.552;9.910;2023-03-05T02:42:38;3.50;99.90
21712;DHT22;11017;53.552;9.910;2023-03-05T02:45:06;3.60;99.90
21712;DHT22;11017;53.552;9.910;2023-03-05T02:47:33;3.50;99.90
21712;DHT22;11017;53.552;9.910;2023-03-05T02:50:00;3.50;99.90
21712;DHT22;11017;53.552;9.910;2023-03-05T02:52:27;3.50;99.90
21712;DHT22;11017;53.552;9.910;2023-03-05T02:54:55;3.60;99.90
21712;DHT22;11017;53.552;9.910;2023-03-05T02:57:23;3.70;99.90
21712;DHT22;11017;53.552;9.910;2023-03-05T02:59:50;3.60;99.90
21712;DHT22;11017;53.552;9.910;2023-03-05T03:02:17;3.50;99.90
21712;DHT22;11017;53.552;9.910;2023-03-05T03:04:44;3.40;99.90
21712;DHT22;11017;53.552;9.910;2023-03-05T03:07:11;3.50;99.90
21712;DHT22;11017;53.552;9.910;2023-03-05T03:09:39;3.60;99.90
21712;DHT22;11017;53.552;9.910;2023-03-05T03:12:07;3.60;99.90
21712;DHT22;11017;53.552;9.910;2023-03-05T03:14:37;3.60;99.90
21712;DHT22;11017;53.552;9.910;2023-03-05T03:17:06;3.50;99.90
21712;DHT22;11017;53.552;9.910;2023-03-05T03:19:34;3.30;99.90
21712;DHT22;11017;53.552;9.910;2023-03-05T03:22:04;3.30;99.90
21712;DHT22;11017;53.552;9.910;2023-03-05T03:24:32;3.30;99.90
21712;DHT22;11017;53.552;9.910;2023-03-05T03:26:59;3.20;99.90
21712;DHT22;11017;53.552;9.910;2023-03-05T03:29:26;3.30;99.90
21712;DHT22;11017;53.552;9.910;2023-03-05T03:31:54;3.30;99.90
21712;DHT22;11017;53.552;9.910;2023-03-05T03:34:21;3.20;99.90
21712;DHT22;11017;53.552;9.910;2023-03-05T03:36:50;3.30;99.90
21712;DHT22;11017;53.552;9.910;2023-03-05T03:39:17;3.50;99.90
21712;DHT22;11017;53.552;9.910;2023-03-05T03:41:46;3.40;99.90
21712;DHT22;11017;53.552;9.910;2023-03-05T03:44:13;3.40;99.90
21712;DHT22;11017;53.552;9.910;2023-03-05T03:46:43;3.40;99.90
21712;DHT22;11017;53.552;9.910;2023-03-05T03:49:15;3.50;99.90
21712;DHT22;11017;53.552;9.910;2023-03-05T03:51:43;3.40;99.90
21712;DHT22;11017;53.552;9.910;2023-03-05T03:54:10;3.30;99.90
21712;DHT22;11017;53.552;9.910;2023-03-05T03:56:37;3.30;99.90
21712;DHT22;11017;53.552;9.910;2023-03-05T03:59:04;3.30;99.90
21712;DHT22;11017;53.552;9.910;2023-03-05T04:01:31;3.20;99.90
21712;DHT22;11017;53.552;9.910;2023-03-05T04:03:58;3.20;99.90
21712;DHT22;11017;53.552;9.910;2023-03-05T04:06:26;3.20;99.90
21712;DHT22;11017;53.552;9.910;2023-03-05T04:08:54;3.20;99.90
21712;DHT22;11017;53.552;9.910;2023-03-05T04:11:20;3.20;99.90
21712;DHT22;11017;53.552;9.910;2023-03-05T04:13:48;3.20;99.90
21712;DHT22;11017;53.552;9.910;2023-03-05T04:16:16;3.30;99.90
21712;DHT22;11017;53.552;9.910;2023-03-05T04:18:43;3.30;99.90
21712;DHT22;11017;53.552;9.910;2023-03-05T04:21:10;3.20;99.90
21712;DHT22;11017;53.552;9.910;2023-03-05T04:23:39;3.20;99.90
21712;DHT22;11017;53.552;9.910;2023-03-05T04:26:06;3.30;99.90
21712;DHT22;11017;53.552;9.910;2023-03-05T04:28:34;3.40;99.90
21712;DHT22;11017;53.552;9.910;2023-03-05T04:31:01;3.40;99.90
21712;DHT22;11017;53.552;9.910;2023-03-05T04:33:28;3.50;99.90
21712;DHT22;11017;53.552;9.910;2023-03-05T04:35:55;3.50;99.90
21712;DHT22;11017;53.552;9.910;2023-03-05T04:38:22;3.50;99.90
21712;DHT22;11017;53.552;9.910;2023-03-05T04:40:50;3.50;99.90
21712;DHT22;11017;53.552;9.910;2023-03-05T04:43:20;3.40;99.90
21712;DHT22;11017;53.552;9.910;2023-03-05T04:45:47;3.50;99.90
21712;DHT22;11017;53.552;9.910;2023-03-05T04:48:14;3.30;99.90
21712;DHT22;11017;53.552;9.910;2023-03-05T04:50:41;3.30;99.90
21712;DHT22;11017;53.552;9.910;2023-03-05T04:53:08;3.30;99.90
21712;DHT22;11017;53.552;9.910;2023-03-05T04:55:35;3.40;99.90
21712;DHT22;11017;53.552;9.910;2023-03-05T04:58:03;3.40;99.90
21712;DHT22;11017;53.552;9.910;2023-03-05T05:00:30;3.40;99.90
21712;DHT22;11017;53.552;9.910;2023-03-05T05:02:57;3.30;99.90
21712;DHT22;11017;53.552;9.910;2023-03-05T05:05:26;3.50;99.90
21712;DHT22;11017;53.552;9.910;2023-03-05T05:07:54;3.50;99.90
21712;DHT22;11017;53.552;9.910;2023-03-05T05:10:22;3.50;99.90
21712;DHT22;11017;53.552;9.910;2023-03-05T05:12:49;3.40;99.90
21712;DHT22;11017;53.552;9.910;2023-03-05T05:15:17;3.40;99.90
21712;DHT22;11017;53.552;9.910;2023-03-05T05:17:44;3.40;99.90
21712;DHT22;11017;53.552;9.910;2023-03-05T05:20:13;3.30;99.90
21712;DHT22;11017;53.552;9.910;2023-03-05T05:22:40;3.20;99.90
21712;DHT22;11017;53.552;9.910;2023-03-05T05:25:08;3.20;99.90
21712;DHT22;11017;53.552;9.910;2023-03-05T05:27:36;3.20;99.90
21712;DHT22;11017;53.552;9.910;2023-03-05T05:30:04;3.20;99.90
21712;DHT22;11017;53.552;9.910;2023-03-05T05:32:33;3.20;99.90
21712;DHT22;11017;53.552;9.910;2023-03-05T05:35:00;3.30;99.90
21712;DHT22;11017;53.552;9.910;2023-03-05T05:37:28;3.30;99.90
21712;DHT22;11017;53.552;9.910;2023-03-05T05:39:55;3.20;99.90
21712;DHT22;11017;53.552;9.910;2023-03-05T05:42:24;3.40;99.90
21712;DHT22;11017;53.552;9.910;2023-03-05T05:44:51;3.60;99.90
21712;DHT22;11017;53.552;9.910;2023-03-05T05:47:20;3.70;99.90
21712;DHT22;11017;53.552;9.910;2023-03-05T05:49:48;3.80;99.90
21712;DHT22;11017;53.552;9.910;2023-03-05T05:52:15;3.90;99.90
21712;DHT22;11017;53.552;9.910;2023-03-05T05:54:42;4.00;99.90
21712;DHT22;11017;53.552;9.910;2023-03-05T05:57:09;3.80;99.90
21712;DHT22;11017;53.552;9.910;2023-03-05T05:59:36;3.60;99.90
21712;DHT22;11017;53.552;9.910;2023-03-05T06:02:04;3.40;99.90
21712;DHT22;11017;53.552;9.910;2023-03-05T06:04:32;3.50;99.90
21712;DHT22;11017;53.552;9.910;2023-03-05T06:07:00;3.60;99.90
21712;DHT22;11017;53.552;9.910;2023-03-05T06:09:27;3.50;99.90
21712;DHT22;11017;53.552;9.910;2023-03-05T06:11:54;3.40;99.90
21712;DHT22;11017;53.552;9.910;2023-03-05T06:14:21;3.40;99.90
21712;DHT22;11017;53.552;9.910;2023-03-05T06:16:48;3.40;99.90
21712;DHT22;11017;53.552;9.910;2023-03-05T06:19:15;3.40;99.90
21712;DHT22;11017;53.552;9.910;2023-03-05T06:21:42;3.40;99.90
21712;DHT22;11017;53.552;9.910;2023-03-05T06:24:10;3.50;99.90
21712;DHT22;11017;53.552;9.910;2023-03-05T06:26:38;3.50;99.90
21712;DHT22;11017;53.552;9.910;2023-03-05T06:29:05;3.40;99.90
21712;DHT22;11017;53.552;9.910;2023-03-05T06:31:32;3.40;99.90
21712;DHT22;11017;53.552;9.910;2023-03-05T06:34:00;3.40;99.90
21712;DHT22;11017;53.552;9.910;2023-03-05T06:36:27;3.50;99.90
21712;DHT22;11017;53.552;9.910;2023-03-05T06:38:55;3.50;99.90
21712;DHT22;11017;53.552;9.910;2023-03-05T06:41:25;3.60;99.90
21712;DHT22;11017;53.552;9.910;2023-03-05T06:43:53;3.70;99.90
21712;DHT22;11017;53.552;9.910;2023-03-05T06:46:22;3.60;99.90
21712;DHT22;11017;53.552;9.910;2023-03-05T06:48:50;3.60;99.90
21712;DHT22;11017;53.552;9.910;2023-03-05T06:51:19;3.60;99.90
21712;DHT22;11017;53.552;9.910;2023-03-05T06:53:47;3.60;99.90
21712;DHT22;11017;53.552;9.910;2023-03-05T06:56:14;3.70;99.90
21712;DHT22;11017;53.552;9.910;2023-03-05T06:58:44;3.60;99.90
21712;DHT22;11017;53.552;9.910;2023-03-05T07:01:11;3.60;99.90
21712;DHT22;11017;53.552;9.910;2023-03-05T07:03:38;3.60;99.90
21712;DHT22;11017;53.552;9.910;2023-03-05T07:06:06;3.80;99.90
21712;DHT22;11017;53.552;9.910;2023-03-05T07:08:34;4.10;99.90
21712;DHT22;11017;53.552;9.910;2023-03-05T07:11:01;4.20;99.90
21712;DHT22;11017;53.552;9.910;2023-03-05T07:13:28;4.30;99.90
21712;DHT22;11017;53.552;9.910;2023-03-05T07:15:56;4.40;99.90
21712;DHT22;11017;53.552;9.910;2023-03-05T07:18:23;4.50;99.90
21712;DHT22;11017;53.552;9.910;2023-03-05T07:20:50;4.10;99.90
21712;DHT22;11017;53.552;9.910;2023-03-05T07:23:17;4.10;99.90
21712;DHT22;11017;53.552;9.910;2023-03-05T07:25:44;4.10;99.90
21712;DHT22;11017;53.552;9.910;2023-03-05T07:28:11;4.10;99.90
21712;DHT22;11017;53.552;9.910;2023-03-05T07:30:38;4.10;99.90
21712;DHT22;11017;53.552;9.910;2023-03-05T07:33:06;4.20;99.90
21712;DHT22;11017;53.552;9.910;2023-03-05T07:35:33;4.20;99.90
21712;DHT22;11017;53.552;9.910;2023-03-05T07:38:00;4.50;99.90
21712;DHT22;11017;53.552;9.910;2023-03-05T07:40:27;4.70;99.90
21712;DHT22;11017;53.552;9.910;2023-03-05T07:42:54;4.70;99.90
21712;DHT22;11017;53.552;9.910;2023-03-05T07:45:20;4.60;99.90
21712;DHT22;11017;53.552;9.910;2023-03-05T07:47:47;4.70;99.90
21712;DHT22;11017;53.552;9.910;2023-03-05T07:50:16;4.60;99.90
21712;DHT22;11017;53.552;9.910;2023-03-05T07:52:43;4.50;99.90
21712;DHT22;11017;53.552;9.910;2023-03-05T07:55:10;4.40;99.90
21712;DHT22;11017;53.552;9.910;2023-03-05T07:57:37;4.30;99.90
21712;DHT22;11017;53.552;9.910;2023-03-05T08:00:05;4.30;99.90
21712;DHT22;11017;53.552;9.910;2023-03-05T08:02:32;4.50;99.90
21712;DHT22;11017;53.552;9.910;2023-03-05T08:04:59;4.80;99.90
21712;DHT22;11017;53.552;9.910;2023-03-05T08:07:27;4.80;99.90
21712;DHT22;11017;53.552;9.910;2023-03-05T08:09:54;5.00;99.90
21712;DHT22;11017;53.552;9.910;2023-03-05T08:12:21;5.10;99.90
21712;DHT22;11017;53.552;9.910;2023-03-05T08:14:49;5.30;99.90
21712;DHT22;11017;53.552;9.910;2023-03-05T08:17:16;5.20;99.90
21712;DHT22;11017;53.552;9.910;2023-03-05T08:19:43;5.00;99.90
21712;DHT22;11017;53.552;9.910;2023-03-05T08:22:10;5.00;99.90
21712;DHT22;11017;53.552;9.910;2023-03-05T08:24:38;5.00;99.90
21712;DHT22;11017;53.552;9.910;2023-03-05T08:27:05;4.90;99.90
21712;DHT22;11017;53.552;9.910;2023-03-05T08:29:32;5.00;99.90
21712;DHT22;11017;53.552;9.910;2023-03-05T08:31:59;5.00;99.90
21712;DHT22;11017;53.552;9.910;2023-03-05T08:34:26;5.30;99.90
21712;DHT22;11017;53.552;9.910;2023-03-05T08:36:53;5.90;99.90
21712;DHT22;11017;53.552;9.910;2023-03-05T08:39:20;6.70;99.90
21712;DHT22;11017;53.552;9.910;2023-03-05T08:41:48;7.80;99.90
21712;DHT22;11017;53.552;9.910;2023-03-05T08:44:15;8.00;99.90
21712;DHT22;11017;53.552;9.910;2023-03-05T08:46:42;7.80;99.90
21712;DHT22;11017;53.552;9.910;2023-03-05T08:49:09;7.20;99.90
21712;DHT22;11017;53.552;9.910;2023-03-05T08:51:36;6.80;99.90
21712;DHT22;11017;53.552;9.910;2023-03-05T08:54:03;6.60;99.90
21712;DHT22;11017;53.552;9.910;2023-03-05T08:56:32;6.40;99.90
21712;DHT22;11017;53.552;9.910;2023-03-05T08:59:01;6.50;99.90
21712;DHT22;11017;53.552;9.910;2023-03-05T09:01:28;7.00;99.90
21712;DHT22;11017;53.552;9.910;2023-03-05T09:03:56;7.60;99.90
21712;DHT22;11017;53.552;9.910;2023-03-05T09:06:24;7.80;99.90
21712;DHT22;11017;53.552;9.910;2023-03-05T09:08:51;8.30;99.90
21712;DHT22;11017;53.552;9.910;2023-03-05T09:11:19;8.60;99.90
21712;DHT22;11017;53.552;9.910;2023-03-05T09:13:46;8.00;99.90
21712;DHT22;11017;53.552;9.910;2023-03-05T09:16:16;7.50;99.90
21712;DHT22;11017;53.552;9.910;2023-03-05T09:18:43;7.60;99.90
21712;DHT22;11017;53.552;9.910;2023-03-05T09:21:12;7.80;99.90
21712;DHT22;11017;53.552;9.910;2023-03-05T09:23:40;8.10;99.90
21712;DHT22;11017;53.552;9.910;2023-03-05T09:26:08;7.70;99.90
21712;DHT22;11017;53.552;9.910;2023-03-05T09:28:36;7.70;99.90
21712;DHT22;11017;53.552;9.910;2023-03-05T09:31:04;7.90;99.90
21712;DHT22;11017;53.552;9.910;2023-03-05T09:33:33;8.00;99.90
21712;DHT22;11017;53.552;9.910;2023-03-05T09:36:02;8.10;99.90
21712;DHT22;11017;53.552;9.910;2023-03-05T09:38:29;8.90;99.90
21712;DHT22;11017;53.552;9.910;2023-03-05T09:40:58;9.60;99.90
21712;DHT22;11017;53.552;9.910;2023-03-05T09:43:37;8.90;99.90
21712;DHT22;11017;53.552;9.910;2023-03-05T09:46:18;8.20;99.90
21712;DHT22;11017;53.552;9.910;2023-03-05T09:48:52;7.70;99.90
21712;DHT22;11017;53.552;9.910;2023-03-05T09:51:23;7.10;99.90
21712;DHT22;11017;53.552;9.910;2023-03-05T09:53:56;6.80;99.90
21712;DHT22;11017;53.552;9.910;2023-03-05T09:56:27;6.40;99.90
21712;DHT22;11017;53.552;9.910;2023-03-05T09:58:58;6.10;99.90
21712;DHT22;11017;53.552;9.910;2023-03-05T10:01:33;5.90;99.90
21712;DHT22;11017;53.552;9.910;2023-03-05T10:04:09;6.00;99.90
21712;DHT22;11017;53.552;9.910;2023-03-05T10:06:39;6.10;99.90
21712;DHT22;11017;53.552;9.910;2023-03-05T10:09:14;6.10;99.90
21712;DHT22;11017;53.552;9.910;2023-03-05T10:11:50;6.60;99.90
21712;DHT22;11017;53.552;9.910;2023-03-05T10:14:24;6.90;99.90
21712;DHT22;11017;53.552;9.910;2023-03-05T10:17:16;7.00;99.90
21712;DHT22;11017;53.552;9.910;2023-03-05T10:20:03;6.90;99.90
21712;DHT22;11017;53.552;9.910;2023-03-05T10:22:39;6.70;99.90
21712;DHT22;11017;53.552;9.910;2023-03-05T10:25:17;6.90;99.90
21712;DHT22;11017;53.552;9.910;2023-03-05T10:27:48;6.60;99.90
21712;DHT22;11017;53.552;9.910;2023-03-05T10:30:26;5.90;99.90
21712;DHT22;11017;53.552;9.910;2023-03-05T10:32:58;5.30;99.90
21712;DHT22;11017;53.552;9.910;2023-03-05T10:35:43;5.50;99.90
21712;DHT22;11017;53.552;9.910;2023-03-05T10:41:07;4.90;99.90
21712;DHT22;11017;53.552;9.910;2023-03-05T10:43:41;5.20;99.90
21712;DHT22;11017;53.552;9.910;2023-03-05T10:46:15;5.50;99.90
21712;DHT22;11017;53.552;9.910;2023-03-05T10:48:47;7.30;99.90
21712;DHT22;11017;53.552;9.910;2023-03-05T10:51:20;8.80;99.90
21712;DHT22;11017;53.552;9.910;2023-03-05T10:53:54;9.50;99.90
21712;DHT22;11017;53.552;9.910;2023-03-05T10:56:23;11.20;99.90
21712;DHT22;11017;53.552;9.910;2023-03-05T10:58:50;10.80;99.90
21712;DHT22;11017;53.552;9.910;2023-03-05T11:01:20;9.80;99.90
21712;DHT22;11017;53.552;9.910;2023-03-05T11:03:54;10.00;99.90
21712;DHT22;11017;53.552;9.910;2023-03-05T11:06:33;11.40;99.90
21712;DHT22;11017;53.552;9.910;2023-03-05T11:09:23;12.10;99.90
21712;DHT22;11017;53.552;9.910;2023-03-05T11:12:13;12.50;99.90
21712;DHT22;11017;53.552;9.910;2023-03-05T11:14:43;12.50;99.90
21712;DHT22;11017;53.552;9.910;2023-03-05T11:17:31;10.70;99.90
21712;DHT22;11017;53.552;9.910;2023-03-05T11:20:29;10.00;99.90
21712;DHT22;11017;53.552;9.910;2023-03-05T11:23:11;9.20;99.90
21712;DHT22;11017;53.552;9.910;2023-03-05T11:26:03;8.40;99.90
21712;DHT22;11017;53.552;9.910;2023-03-05T11:28:33;8.50;99.90
21712;DHT22;11017;53.552;9.910;2023-03-05T11:31:07;10.30;99.90
21712;DHT22;11017;53.552;9.910;2023-03-05T11:33:38;11.60;99.90
21712;DHT22;11017;53.552;9.910;2023-03-05T11:36:23;11.00;99.90
21712;DHT22;11017;53.552;9.910;2023-03-05T11:38:55;10.50;99.90
21712;DHT22;11017;53.552;9.910;2023-03-05T11:41:28;9.70;99.90
21712;DHT22;11017;53.552;9.910;2023-03-05T11:43:58;9.50;99.90
21712;DHT22;11017;53.552;9.910;2023-03-05T11:46:28;9.80;99.90
21712;DHT22;11017;53.552;9.910;2023-03-05T11:48:58;10.90;99.90
21712;DHT22;11017;53.552;9.910;2023-03-05T11:51:30;11.90;99.90
21712;DHT22;11017;53.552;9.910;2023-03-05T11:54:06;12.30;99.90
21712;DHT22;11017;53.552;9.910;2023-03-05T11:56:36;11.30;99.90
21712;DHT22;11017;53.552;9.910;2023-03-05T11:59:06;10.80;99.90
21712;DHT22;11017;53.552;9.910;2023-03-05T12:01:41;12.10;99.90
21712;DHT22;11017;53.552;9.910;2023-03-05T12:04:09;12.30;99.90
21712;DHT22;11017;53.552;9.910;2023-03-05T12:06:38;12.40;99.90
21712;DHT22;11017;53.552;9.910;2023-03-05T12:09:13;11.20;99.90
21712;DHT22;11017;53.552;9.910;2023-03-05T12:11:42;10.60;99.90
21712;DHT22;11017;53.552;9.910;2023-03-05T12:14:16;10.30;99.90
21712;DHT22;11017;53.552;9.910;2023-03-05T12:16:47;10.30;99.90
21712;DHT22;11017;53.552;9.910;2023-03-05T12:19:32;11.60;99.90
21712;DHT22;11017;53.552;9.910;2023-03-05T12:22:03;11.20;99.90
21712;DHT22;11017;53.552;9.910;2023-03-05T12:24:36;10.70;99.90
21712;DHT22;11017;53.552;9.910;2023-03-05T12:27:15;10.50;99.90
21712;DHT22;11017;53.552;9.910;2023-03-05T12:29:45;10.00;99.90
21712;DHT22;11017;53.552;9.910;2023-03-05T12:35:33;8.80;99.90
21712;DHT22;11017;53.552;9.910;2023-03-05T12:38:17;8.90;99.90
21712;DHT22;11017;53.552;9.910;2023-03-05T12:44:16;8.50;99.90
21712;DHT22;11017;53.552;9.910;2023-03-05T12:46:45;8.20;99.90
21712;DHT22;11017;53.552;9.910;2023-03-05T12:49:32;8.10;99.90
21712;DHT22;11017;53.552;9.910;2023-03-05T12:52:03;8.00;99.90
21712;DHT22;11017;53.552;9.910;2023-03-05T12:54:33;8.30;99.90
21712;DHT22;11017;53.552;9.910;2023-03-05T12:57:02;8.20;99.90
21712;DHT22;11017;53.552;9.910;2023-03-05T12:59:39;8.20;99.90
21712;DHT22;11017;53.552;9.910;2023-03-05T13:02:25;8.50;99.90
21712;DHT22;11017;53.552;9.910;2023-03-05T13:04:57;8.80;99.90
21712;DHT22;11017;53.552;9.910;2023-03-05T13:07:24;8.80;99.90
21712;DHT22;11017;53.552;9.910;2023-03-05T13:09:52;9.50;99.90
21712;DHT22;11017;53.552;9.910;2023-03-05T13:12:20;10.10;99.90
21712;DHT22;11017;53.552;9.910;2023-03-05T13:14:56;10.10;99.90
21712;DHT22;11017;53.552;9.910;2023-03-05T13:17:39;9.80;99.90
21712;DHT22;11017;53.552;9.910;2023-03-05T13:20:31;9.80;99.90
21712;DHT22;11017;53.552;9.910;2023-03-05T13:23:15;9.20;99.90
21712;DHT22;11017;53.552;9.910;2023-03-05T13:25:43;9.20;99.90
21712;DHT22;11017;53.552;9.910;2023-03-05T13:28:12;9.50;99.90
21712;DHT22;11017;53.552;9.910;2023-03-05T13:30:44;9.50;99.90
21712;DHT22;11017;53.552;9.910;2023-03-05T13:33:18;10.50;99.90
21712;DHT22;11017;53.552;9.910;2023-03-05T13:35:46;11.50;99.90
21712;DHT22;11017;53.552;9.910;2023-03-05T13:38:21;10.60;99.90
21712;DHT22;11017;53.552;9.910;2023-03-05T13:41:05;10.20;99.90
21712;DHT22;11017;53.552;9.910;2023-03-05T13:43:33;9.40;99.90
21712;DHT22;11017;53.552;9.910;2023-03-05T13:46:01;8.60;99.90
21712;DHT22;11017;53.552;9.910;2023-03-05T13:48:28;9.20;99.90
21712;DHT22;11017;53.552;9.910;2023-03-05T13:50:56;8.90;99.90
21712;DHT22;11017;53.552;9.910;2023-03-05T13:53:25;8.30;99.90
21712;DHT22;11017;53.552;9.910;2023-03-05T13:55:55;8.00;99.90
21712;DHT22;11017;53.552;9.910;2023-03-05T13:58:44;7.90;99.90
21712;DHT22;11017;53.552;9.910;2023-03-05T14:01:24;7.90;99.90
21712;DHT22;11017;53.552;9.910;2023-03-05T14:03:53;8.10;99.90
21712;DHT22;11017;53.552;9.910;2023-03-05T14:06:24;8.10;99.90
21712;DHT22;11017;53.552;9.910;2023-03-05T14:08:54;7.90;99.90
21712;DHT22;11017;53.552;9.910;2023-03-05T14:11:24;7.60;99.90
21712;DHT22;11017;53.552;9.910;2023-03-05T14:13:59;7.50;99.90
21712;DHT22;11017;53.552;9.910;2023-03-05T14:16:29;7.60;99.90
21712;DHT22;11017;53.552;9.910;2023-03-05T14:18:59;7.60;99.90
21712;DHT22;11017;53.552;9.910;2023-03-05T14:21:42;7.80;99.90
21712;DHT22;11017;53.552;9.910;2023-03-05T14:24:12;7.80;99.90
21712;DHT22;11017;53.552;9.910;2023-03-05T14:26:46;7.80;99.90
21712;DHT22;11017;53.552;9.910;2023-03-05T14:29:16;7.70;99.90
21712;DHT22;11017;53.552;9.910;2023-03-05T14:31:49;7.40;99.90
21712;DHT22;11017;53.552;9.910;2023-03-05T14:34:23;7.20;99.90
21712;DHT22;11017;53.552;9.910;2023-03-05T14:36:53;7.20;99.90
21712;DHT22;11017;53.552;9.910;2023-03-05T14:39:37;7.40;99.90
21712;DHT22;11017;53.552;9.910;2023-03-05T14:42:28;7.70;99.90
21712;DHT22;11017;53.552;9.910;2023-03-05T14:44:57;8.20;99.90
21712;DHT22;11017;53.552;9.910;2023-03-05T14:47:27;7.80;99.90
21712;DHT22;11017;53.552;9.910;2023-03-05T14:49:54;7.70;99.90
21712;DHT22;11017;53.552;9.910;2023-03-05T14:52:23;7.60;99.90
21712;DHT22;11017;53.552;9.910;2023-03-05T14:54:50;8.00;99.90
21712;DHT22;11017;53.552;9.910;2023-03-05T14:57:21;7.80;99.90
21712;DHT22;11017;53.552;9.910;2023-03-05T14:59:48;7.90;99.90
21712;DHT22;11017;53.552;9.910;2023-03-05T15:02:16;8.00;99.90
21712;DHT22;11017;53.552;9.910;2023-03-05T15:04:46;7.90;99.90
21712;DHT22;11017;53.552;9.910;2023-03-05T15:07:16;7.60;99.90
21712;DHT22;11017;53.552;9.910;2023-03-05T15:09:45;7.70;99.90
21712;DHT22;11017;53.552;9.910;2023-03-05T15:12:13;7.40;99.90
21712;DHT22;11017;53.552;9.910;2023-03-05T15:14:40;7.00;99.90
21712;DHT22;11017;53.552;9.910;2023-03-05T15:17:15;6.90;99.90
21712;DHT22;11017;53.552;9.910;2023-03-05T15:19:45;6.90;99.90
21712;DHT22;11017;53.552;9.910;2023-03-05T15:22:13;7.30;99.90
21712;DHT22;11017;53.552;9.910;2023-03-05T15:24:40;7.30;99.90
21712;DHT22;11017;53.552;9.910;2023-03-05T15:27:08;7.00;99.90
21712;DHT22;11017;53.552;9.910;2023-03-05T15:29:35;6.90;99.90
21712;DHT22;11017;53.552;9.910;2023-03-05T15:32:02;6.80;99.90
21712;DHT22;11017;53.552;9.910;2023-03-05T15:34:30;6.70;99.90
21712;DHT22;11017;53.552;9.910;2023-03-05T15:36:59;6.60;99.90
21712;DHT22;11017;53.552;9.910;2023-03-05T15:39:26;6.50;99.90
21712;DHT22;11017;53.552;9.910;2023-03-05T15:41:54;6.30;99.90
21712;DHT22;11017;53.552;9.910;2023-03-05T15:44:21;6.30;99.90
21712;DHT22;11017;53.552;9.910;2023-03-05T15:46:48;6.50;99.90
21712;DHT22;11017;53.552;9.910;2023-03-05T15:49:15;6.70;99.90
21712;DHT22;11017;53.552;9.910;2023-03-05T15:51:42;6.80;99.90
21712;DHT22;11017;53.552;9.910;2023-03-05T15:54:12;6.70;99.90
21712;DHT22;11017;53.552;9.910;2023-03-05T15:56:40;6.40;99.90
21712;DHT22;11017;53.552;9.910;2023-03-05T15:59:07;6.40;99.90
21712;DHT22;11017;53.552;9.910;2023-03-05T16:01:35;6.00;99.90
21712;DHT22;11017;53.552;9.910;2023-03-05T16:04:03;6.00;99.90
21712;DHT22;11017;53.552;9.910;2023-03-05T16:06:31;6.10;99.90
21712;DHT22;11017;53.552;9.910;2023-03-05T16:09:01;6.10;99.90
21712;DHT22;11017;53.552;9.910;2023-03-05T16:11:31;6.30;99.90
21712;DHT22;11017;53.552;9.910;2023-03-05T16:14:00;6.30;99.90